sensor_id;sensor_type;location;lat;lon;timestamp;temperature;humidity
66144;SHT31;52947;50.842;6.084;2024-01-07T00:02:24;1.17;99.80
66144;SHT31;52947;50.842;6.084;2024-01-07T00:04:53;1.20;99.76
66144;SHT31;52947;50.842;6.084;2024-01-07T00:07:21;1.15;99.79
66144;SHT31;52947;50.842;6.084;2024-01-07T00:09:49;1.22;99.74
66144;SHT31;52947;50.842;6.084;2024-01-07T00:12:17;1.12;99.32
66144;SHT31;52947;50.842;6.084;2024-01-07T00:14:45;1.07;99.76
66144;SHT31;52947;50.842;6.084;2024-01-07T00:17:13;1.01;99.59
66144;SHT31;52947;50.842;6.084;2024-01-07T00:19:41;1.04;99.62
66144;SHT31;52947;50.842;6.084;2024-01-07T00:22:11;1.07;99.74
66144;SHT31;52947;50.842;6.084;2024-01-07T00:24:39;1.01;99.81
66144;SHT31;52947;50.842;6.084;2024-01-07T00:27:07;1.00;99.78
66144;SHT31;52947;50.842;6.084;2024-01-07T00:29:35;0.99;99.89
66144;SHT31;52947;50.842;6.084;2024-01-07T00:32:05;0.93;99.99
66144;SHT31;52947;50.842;6.084;2024-01-07T00:34:33;1.04;99.99
66144;SHT31;52947;50.842;6.084;2024-01-07T00:37:01;1.06;99.99
66144;SHT31;52947;50.842;6.084;2024-01-07T00:39:31;1.00;99.89
66144;SHT31;52947;50.842;6.084;2024-01-07T00:41:59;1.09;99.74
66144;SHT31;52947;50.842;6.084;2024-01-07T00:44:27;1.15;99.51
66144;SHT31;52947;50.842;6.084;2024-01-07T00:46:55;1.17;99.58
66144;SHT31;52947;50.842;6.084;2024-01-07T00:49:23;1.22;99.48
66144;SHT31;52947;50.842;6.084;2024-01-07T00:51:51;1.16;99.49
66144;SHT31;52947;50.842;6.084;2024-01-07T00:54:19;1.20;99.42
66144;SHT31;52947;50.842;6.084;2024-01-07T00:56:48;1.13;99.44
66144;SHT31;52947;50.842;6.084;2024-01-07T00:59:17;1.16;99.59
66144;SHT31;52947;50.842;6.084;2024-01-07T01:01:44;1.09;99.53
66144;SHT31;52947;50.842;6.084;2024-01-07T01:04:13;1.09;99.66
66144;SHT31;52947;50.842;6.084;2024-01-07T01:06:41;1.16;99.68
66144;SHT31;52947;50.842;6.084;2024-01-07T01:09:09;1.20;99.49
66144;SHT31;52947;50.842;6.084;2024-01-07T01:11:38;1.19;99.42
66144;SHT31;52947;50.842;6.084;2024-01-07T01:14:07;1.29;99.38
66144;SHT31;52947;50.842;6.084;2024-01-07T01:16:35;1.34;99.36
66144;SHT31;52947;50.842;6.084;2024-01-07T01:19:03;1.37;99.13
66144;SHT31;52947;50.842;6.084;2024-01-07T01:21:31;2.80;99.99
66144;SHT31;52947;50.842;6.084;2024-01-07T01:23:59;3.53;99.99
66144;SHT31;52947;50.842;6.084;2024-01-07T01:26:27;3.83;99.99
66144;SHT31;52947;50.842;6.084;2024-01-07T01:28:55;4.41;99.99
66144;SHT31;52947;50.842;6.084;2024-01-07T01:31:25;4.85;98.13
66144;SHT31;52947;50.842;6.084;2024-01-07T01:33:53;4.30;97.34
66144;SHT31;52947;50.842;6.084;2024-01-07T01:36:21;3.42;96.02
66144;SHT31;52947;50.842;6.084;2024-01-07T01:38:49;2.49;96.56
66144;SHT31;52947;50.842;6.084;2024-01-07T01:41:17;1.98;97.53
66144;SHT31;52947;50.842;6.084;2024-01-07T01:43:45;1.65;98.88
66144;SHT31;52947;50.842;6.084;2024-01-07T01:46:13;1.43;99.21
66144;SHT31;52947;50.842;6.084;2024-01-07T01:48:43;1.29;99.84
66144;SHT31;52947;50.842;6.084;2024-01-07T01:51:12;1.34;99.99
66144;SHT31;52947;50.842;6.084;2024-01-07T01:53:40;1.27;99.99
66144;SHT31;52947;50.842;6.084;2024-01-07T01:56:08;1.20;99.99
66144;SHT31;52947;50.842;6.084;2024-01-07T01:58:36;1.24;99.99
66144;SHT31;52947;50.842;6.084;2024-01-07T02:01:04;1.23;99.99
66144;SHT31;52947;50.842;6.084;2024-01-07T02:03:32;1.13;99.99
66144;SHT31;52947;50.842;6.084;2024-01-07T02:06:02;1.09;99.99
66144;SHT31;52947;50.842;6.084;2024-01-07T02:08:30;1.12;99.99
66144;SHT31;52947;50.842;6.084;2024-01-07T02:11:14;1.20;99.99
66144;SHT31;52947;50.842;6.084;2024-01-07T02:13:42;1.07;99.99
66144;SHT31;52947;50.842;6.084;2024-01-07T02:16:10;1.04;99.99
66144;SHT31;52947;50.842;6.084;2024-01-07T02:18:40;1.00;99.99
66144;SHT31;52947;50.842;6.084;2024-01-07T02:21:12;1.03;99.99
66144;SHT31;52947;50.842;6.084;2024-01-07T02:23:40;1.00;99.99
66144;SHT31;52947;50.842;6.084;2024-01-07T02:26:10;0.99;99.99
66144;SHT31;52947;50.842;6.084;2024-01-07T02:28:38;0.95;99.99
66144;SHT31;52947;50.842;6.084;2024-01-07T02:31:06;0.99;99.99
66144;SHT31;52947;50.842;6.084;2024-01-07T02:33:34;1.01;99.99
66144;SHT31;52947;50.842;6.084;2024-01-07T02:36:03;1.01;99.99
66144;SHT31;52947;50.842;6.084;2024-01-07T02:38:31;0.99;99.99
66144;SHT31;52947;50.842;6.084;2024-01-07T02:40:59;1.01;99.99
66144;SHT31;52947;50.842;6.084;2024-01-07T02:43:28;1.00;99.99
66144;SHT31;52947;50.842;6.084;2024-01-07T02:45:56;1.04;99.99
66144;SHT31;52947;50.842;6.084;2024-01-07T02:48:24;1.12;99.99
66144;SHT31;52947;50.842;6.084;2024-01-07T02:50:52;1.17;99.99
66144;SHT31;52947;50.842;6.084;2024-01-07T02:53:20;2.95;99.99
66144;SHT31;52947;50.842;6.084;2024-01-07T02:55:48;3.76;99.99
66144;SHT31;52947;50.842;6.084;2024-01-07T02:58:16;3.79;99.48
66144;SHT31;52947;50.842;6.084;2024-01-07T03:00:46;3.25;96.73
66144;SHT31;52947;50.842;6.084;2024-01-07T03:03:14;2.57;97.58
66144;SHT31;52947;50.842;6.084;2024-01-07T03:05:42;2.37;98.81
66144;SHT31;52947;50.842;6.084;2024-01-07T03:08:10;2.11;98.83
66144;SHT31;52947;50.842;6.084;2024-01-07T03:10:38;1.74;99.17
66144;SHT31;52947;50.842;6.084;2024-01-07T03:13:06;1.71;99.51
66144;SHT31;52947;50.842;6.084;2024-01-07T03:15:34;1.68;99.34
66144;SHT31;52947;50.842;6.084;2024-01-07T03:18:04;1.67;99.56
66144;SHT31;52947;50.842;6.084;2024-01-07T03:20:32;1.58;99.47
66144;SHT31;52947;50.842;6.084;2024-01-07T03:23:00;1.47;99.73
66144;SHT31;52947;50.842;6.084;2024-01-07T03:25:28;1.36;99.99
66144;SHT31;52947;50.842;6.084;2024-01-07T03:27:56;1.43;99.99
66144;SHT31;52947;50.842;6.084;2024-01-07T03:30:24;1.47;99.99
66144;SHT31;52947;50.842;6.084;2024-01-07T03:32:53;1.40;99.99
66144;SHT31;52947;50.842;6.084;2024-01-07T03:35:22;1.44;99.99
66144;SHT31;52947;50.842;6.084;2024-01-07T03:37:51;1.39;99.99
66144;SHT31;52947;50.842;6.084;2024-01-07T03:40:19;1.43;99.99
66144;SHT31;52947;50.842;6.084;2024-01-07T03:42:47;1.44;99.99
66144;SHT31;52947;50.842;6.084;2024-01-07T03:45:15;1.27;99.99
66144;SHT31;52947;50.842;6.084;2024-01-07T03:47:43;1.24;99.99
66144;SHT31;52947;50.842;6.084;2024-01-07T03:50:11;1.27;99.99
66144;SHT31;52947;50.842;6.084;2024-01-07T03:52:41;1.24;99.99
66144;SHT31;52947;50.842;6.084;2024-01-07T03:55:09;1.26;99.99
66144;SHT31;52947;50.842;6.084;2024-01-07T03:57:37;1.31;99.99
66144;SHT31;52947;50.842;6.084;2024-01-07T04:00:06;1.37;99.99
66144;SHT31;52947;50.842;6.084;2024-01-07T04:02:36;1.34;99.99
66144;SHT31;52947;50.842;6.084;2024-01-07T04:05:05;1.34;99.99
66144;SHT31;52947;50.842;6.084;2024-01-07T04:07:34;1.31;99.99
66144;SHT31;52947;50.842;6.084;2024-01-07T04:10:04;1.27;99.99
66144;SHT31;52947;50.842;6.084;2024-01-07T04:12:32;2.53;99.99
66144;SHT31;52947;50.842;6.084;2024-01-07T04:15:00;3.21;99.99
66144;SHT31;52947;50.842;6.084;2024-01-07T04:17:28;3.97;99.99
66144;SHT31;52947;50.842;6.084;2024-01-07T04:19:56;4.78;99.99
66144;SHT31;52947;50.842;6.084;2024-01-07T04:22:24;4.17;96.48
66144;SHT31;52947;50.842;6.084;2024-01-07T04:24:52;3.26;96.00
66144;SHT31;52947;50.842;6.084;2024-01-07T04:27:22;2.49;97.06
66144;SHT31;52947;50.842;6.084;2024-01-07T04:29:51;2.12;97.88
66144;SHT31;52947;50.842;6.084;2024-01-07T04:32:19;1.94;98.33
66144;SHT31;52947;50.842;6.084;2024-01-07T04:34:48;1.62;98.94
66144;SHT31;52947;50.842;6.084;2024-01-07T04:37:16;1.36;99.84
66144;SHT31;52947;50.842;6.084;2024-01-07T04:39:44;1.27;99.97
66144;SHT31;52947;50.842;6.084;2024-01-07T04:42:12;1.24;99.99
66144;SHT31;52947;50.842;6.084;2024-01-07T04:44:42;1.12;99.99
66144;SHT31;52947;50.842;6.084;2024-01-07T04:47:24;1.09;99.99
66144;SHT31;52947;50.842;6.084;2024-01-07T04:49:52;1.06;99.99
66144;SHT31;52947;50.842;6.084;2024-01-07T04:52:21;1.06;99.99
66144;SHT31;52947;50.842;6.084;2024-01-07T04:54:50;1.04;99.99
66144;SHT31;52947;50.842;6.084;2024-01-07T04:57:18;1.04;99.99
66144;SHT31;52947;50.842;6.084;2024-01-07T04:59:49;1.03;99.99
66144;SHT31;52947;50.842;6.084;2024-01-07T05:02:17;1.06;99.99
66144;SHT31;52947;50.842;6.084;2024-01-07T05:04:45;1.04;99.99
66144;SHT31;52947;50.842;6.084;2024-01-07T05:07:13;0.96;99.99
66144;SHT31;52947;50.842;6.084;2024-01-07T05:09:41;1.01;99.99
66144;SHT31;52947;50.842;6.084;2024-01-07T05:12:09;1.01;99.99
66144;SHT31;52947;50.842;6.084;2024-01-07T05:14:37;1.03;99.99
66144;SHT31;52947;50.842;6.084;2024-01-07T05:17:06;0.95;99.99
66144;SHT31;52947;50.842;6.084;2024-01-07T05:19:34;1.00;99.99
66144;SHT31;52947;50.842;6.084;2024-01-07T05:22:02;1.10;99.99
66144;SHT31;52947;50.842;6.084;2024-01-07T05:24:31;0.96;99.99
66144;SHT31;52947;50.842;6.084;2024-01-07T05:27:00;0.97;99.99
66144;SHT31;52947;50.842;6.084;2024-01-07T05:29:28;0.96;99.99
66144;SHT31;52947;50.842;6.084;2024-01-07T05:31:56;0.99;99.99
66144;SHT31;52947;50.842;6.084;2024-01-07T05:34:28;0.97;99.99
66144;SHT31;52947;50.842;6.084;2024-01-07T05:36:56;0.97;99.99
66144;SHT31;52947;50.842;6.084;2024-01-07T05:39:24;0.99;99.99
66144;SHT31;52947;50.842;6.084;2024-01-07T05:41:52;0.99;99.99
66144;SHT31;52947;50.842;6.084;2024-01-07T05:44:20;0.99;99.99
66144;SHT31;52947;50.842;6.084;2024-01-07T05:46:49;0.89;99.99
66144;SHT31;52947;50.842;6.084;2024-01-07T05:49:17;0.88;99.99
66144;SHT31;52947;50.842;6.084;2024-01-07T05:51:47;0.88;99.99
66144;SHT31;52947;50.842;6.084;2024-01-07T05:54:15;0.95;99.99
66144;SHT31;52947;50.842;6.084;2024-01-07T05:56:43;0.97;99.99
66144;SHT31;52947;50.842;6.084;2024-01-07T05:59:11;1.01;99.99
66144;SHT31;52947;50.842;6.084;2024-01-07T06:01:39;0.89;99.99
66144;SHT31;52947;50.842;6.084;2024-01-07T06:04:07;0.86;99.99
66144;SHT31;52947;50.842;6.084;2024-01-07T06:06:36;0.88;99.99
66144;SHT31;52947;50.842;6.084;2024-01-07T06:09:06;0.83;99.99
66144;SHT31;52947;50.842;6.084;2024-01-07T06:11:34;0.83;99.99
66144;SHT31;52947;50.842;6.084;2024-01-07T06:14:02;0.79;99.99
66144;SHT31;52947;50.842;6.084;2024-01-07T06:16:30;0.82;99.99
66144;SHT31;52947;50.842;6.084;2024-01-07T06:18:58;0.78;99.99
66144;SHT31;52947;50.842;6.084;2024-01-07T06:21:26;0.79;99.99
66144;SHT31;52947;50.842;6.084;2024-01-07T06:23:55;0.78;99.99
66144;SHT31;52947;50.842;6.084;2024-01-07T06:26:24;0.80;99.99
66144;SHT31;52947;50.842;6.084;2024-01-07T06:28:52;0.79;99.99
66144;SHT31;52947;50.842;6.084;2024-01-07T06:31:20;0.75;99.99
66144;SHT31;52947;50.842;6.084;2024-01-07T06:33:49;0.76;99.99
66144;SHT31;52947;50.842;6.084;2024-01-07T06:36:17;0.68;99.99
66144;SHT31;52947;50.842;6.084;2024-01-07T06:38:45;0.69;99.99
66144;SHT31;52947;50.842;6.084;2024-01-07T06:41:13;0.70;99.99
66144;SHT31;52947;50.842;6.084;2024-01-07T06:43:42;0.69;99.99
66144;SHT31;52947;50.842;6.084;2024-01-07T06:46:10;0.70;99.99
66144;SHT31;52947;50.842;6.084;2024-01-07T06:48:39;0.75;99.99
66144;SHT31;52947;50.842;6.084;2024-01-07T06:51:14;0.72;99.99
66144;SHT31;52947;50.842;6.084;2024-01-07T06:53:42;0.75;99.99
66144;SHT31;52947;50.842;6.084;2024-01-07T06:56:10;0.78;99.99
66144;SHT31;52947;50.842;6.084;2024-01-07T06:58:38;0.82;99.99
66144;SHT31;52947;50.842;6.084;2024-01-07T07:01:07;0.83;99.99
66144;SHT31;52947;50.842;6.084;2024-01-07T07:03:36;0.79;99.99
66144;SHT31;52947;50.842;6.084;2024-01-07T07:06:04;0.82;99.99
66144;SHT31;52947;50.842;6.084;2024-01-07T07:08:32;0.82;99.99
66144;SHT31;52947;50.842;6.084;2024-01-07T07:11:00;0.85;99.99
66144;SHT31;52947;50.842;6.084;2024-01-07T07:13:28;0.68;99.99
66144;SHT31;52947;50.842;6.084;2024-01-07T07:15:56;0.68;99.99
66144;SHT31;52947;50.842;6.084;2024-01-07T07:18:26;0.72;99.99
66144;SHT31;52947;50.842;6.084;2024-01-07T07:20:54;0.76;99.99
66144;SHT31;52947;50.842;6.084;2024-01-07T07:23:22;0.75;99.99
66144;SHT31;52947;50.842;6.084;2024-01-07T07:25:50;0.78;99.99
66144;SHT31;52947;50.842;6.084;2024-01-07T07:28:18;0.75;99.99
66144;SHT31;52947;50.842;6.084;2024-01-07T07:30:46;0.69;99.99
66144;SHT31;52947;50.842;6.084;2024-01-07T07:33:18;2.95;99.99
66144;SHT31;52947;50.842;6.084;2024-01-07T07:35:47;3.08;98.06
66144;SHT31;52947;50.842;6.084;2024-01-07T07:38:15;3.52;95.96
66144;SHT31;52947;50.842;6.084;2024-01-07T07:40:43;5.20;94.46
66144;SHT31;52947;50.842;6.084;2024-01-07T07:43:19;5.81;91.53
66144;SHT31;52947;50.842;6.084;2024-01-07T07:45:47;6.23;87.23
66144;SHT31;52947;50.842;6.084;2024-01-07T07:48:15;4.45;87.91
66144;SHT31;52947;50.842;6.084;2024-01-07T07:50:44;2.93;93.65
66144;SHT31;52947;50.842;6.084;2024-01-07T07:53:13;2.09;95.83
66144;SHT31;52947;50.842;6.084;2024-01-07T07:55:41;1.85;96.45
66144;SHT31;52947;50.842;6.084;2024-01-07T07:58:09;1.27;97.41
66144;SHT31;52947;50.842;6.084;2024-01-07T08:00:37;1.19;98.26
66144;SHT31;52947;50.842;6.084;2024-01-07T08:03:05;0.99;98.90
66144;SHT31;52947;50.842;6.084;2024-01-07T08:05:33;1.09;98.67
66144;SHT31;52947;50.842;6.084;2024-01-07T08:08:01;0.95;99.15
66144;SHT31;52947;50.842;6.084;2024-01-07T08:10:31;0.92;99.06
66144;SHT31;52947;50.842;6.084;2024-01-07T08:13:00;0.89;99.14
66144;SHT31;52947;50.842;6.084;2024-01-07T08:15:28;0.86;98.75
66144;SHT31;52947;50.842;6.084;2024-01-07T08:17:57;0.73;99.00
66144;SHT31;52947;50.842;6.084;2024-01-07T08:20:25;0.72;99.25
66144;SHT31;52947;50.842;6.084;2024-01-07T08:22:53;0.73;99.04
66144;SHT31;52947;50.842;6.084;2024-01-07T08:25:21;0.69;99.24
66144;SHT31;52947;50.842;6.084;2024-01-07T08:27:50;0.73;99.15
66144;SHT31;52947;50.842;6.084;2024-01-07T08:30:19;0.79;99.47
66144;SHT31;52947;50.842;6.084;2024-01-07T08:32:47;0.66;99.41
66144;SHT31;52947;50.842;6.084;2024-01-07T08:35:15;0.64;99.44
66144;SHT31;52947;50.842;6.084;2024-01-07T08:37:46;0.70;99.56
66144;SHT31;52947;50.842;6.084;2024-01-07T08:40:14;0.59;99.32
66144;SHT31;52947;50.842;6.084;2024-01-07T08:42:45;0.58;99.67
66144;SHT31;52947;50.842;6.084;2024-01-07T08:45:14;0.49;99.54
66144;SHT31;52947;50.842;6.084;2024-01-07T08:47:42;0.49;99.98
66144;SHT31;52947;50.842;6.084;2024-01-07T08:50:30;0.49;99.99
66144;SHT31;52947;50.842;6.084;2024-01-07T08:52:58;0.49;99.99
66144;SHT31;52947;50.842;6.084;2024-01-07T08:55:30;0.44;99.99
66144;SHT31;52947;50.842;6.084;2024-01-07T08:57:59;0.35;99.95
66144;SHT31;52947;50.842;6.084;2024-01-07T09:00:29;0.37;99.99
66144;SHT31;52947;50.842;6.084;2024-01-07T09:02:58;0.35;99.99
66144;SHT31;52947;50.842;6.084;2024-01-07T09:05:26;0.38;99.99
66144;SHT31;52947;50.842;6.084;2024-01-07T09:07:54;0.41;99.99
66144;SHT31;52947;50.842;6.084;2024-01-07T09:10:22;0.45;99.99
66144;SHT31;52947;50.842;6.084;2024-01-07T09:12:51;0.48;99.99
66144;SHT31;52947;50.842;6.084;2024-01-07T09:15:20;0.45;99.99
66144;SHT31;52947;50.842;6.084;2024-01-07T09:17:50;0.44;99.99
66144;SHT31;52947;50.842;6.084;2024-01-07T09:20:18;0.48;99.99
66144;SHT31;52947;50.842;6.084;2024-01-07T09:22:46;0.42;99.99
66144;SHT31;52947;50.842;6.084;2024-01-07T09:25:15;0.41;99.99
66144;SHT31;52947;50.842;6.084;2024-01-07T09:27:44;0.42;99.99
66144;SHT31;52947;50.842;6.084;2024-01-07T09:30:12;0.41;99.99
66144;SHT31;52947;50.842;6.084;2024-01-07T09:32:42;0.37;99.99
66144;SHT31;52947;50.842;6.084;2024-01-07T09:35:11;0.32;99.99
66144;SHT31;52947;50.842;6.084;2024-01-07T09:37:39;0.38;99.99
66144;SHT31;52947;50.842;6.084;2024-01-07T09:40:08;0.38;99.99
66144;SHT31;52947;50.842;6.084;2024-01-07T09:42:37;0.34;99.99
66144;SHT31;52947;50.842;6.084;2024-01-07T09:45:05;0.22;99.99
66144;SHT31;52947;50.842;6.084;2024-01-07T09:47:35;0.15;99.99
66144;SHT31;52947;50.842;6.084;2024-01-07T09:50:03;0.15;99.99
66144;SHT31;52947;50.842;6.084;2024-01-07T09:52:33;0.10;99.99
66144;SHT31;52947;50.842;6.084;2024-01-07T09:55:02;0.10;99.99
66144;SHT31;52947;50.842;6.084;2024-01-07T09:57:31;0.22;99.99
66144;SHT31;52947;50.842;6.084;2024-01-07T10:00:01;0.10;99.99
66144;SHT31;52947;50.842;6.084;2024-01-07T10:02:37;0.17;99.99
66144;SHT31;52947;50.842;6.084;2024-01-07T10:05:08;0.04;99.99
66144;SHT31;52947;50.842;6.084;2024-01-07T10:07:38;0.07;99.99
66144;SHT31;52947;50.842;6.084;2024-01-07T10:10:15;0.04;99.99
66144;SHT31;52947;50.842;6.084;2024-01-07T10:12:44;0.08;99.99
66144;SHT31;52947;50.842;6.084;2024-01-07T10:15:13;0.13;99.99
66144;SHT31;52947;50.842;6.084;2024-01-07T10:17:41;0.01;99.99
66144;SHT31;52947;50.842;6.084;2024-01-07T10:20:10;0.07;99.99
66144;SHT31;52947;50.842;6.084;2024-01-07T10:22:46;0.04;99.99
66144;SHT31;52947;50.842;6.084;2024-01-07T10:25:15;-0.06;99.99
66144;SHT31;52947;50.842;6.084;2024-01-07T10:27:43;-0.09;99.99
66144;SHT31;52947;50.842;6.084;2024-01-07T10:30:12;-0.07;99.99
66144;SHT31;52947;50.842;6.084;2024-01-07T10:32:41;-0.03;99.99
66144;SHT31;52947;50.842;6.084;2024-01-07T10:35:13;-0.03;99.99
66144;SHT31;52947;50.842;6.084;2024-01-07T10:37:44;-0.09;99.56
66144;SHT31;52947;50.842;6.084;2024-01-07T10:40:12;-0.09;99.55
66144;SHT31;52947;50.842;6.084;2024-01-07T10:42:43;0.45;99.99
66144;SHT31;52947;50.842;6.084;2024-01-07T10:45:12;1.65;99.99
66144;SHT31;52947;50.842;6.084;2024-01-07T10:47:44;1.16;95.85
66144;SHT31;52947;50.842;6.084;2024-01-07T10:50:14;0.58;97.34
66144;SHT31;52947;50.842;6.084;2024-01-07T10:52:48;0.38;98.34
66144;SHT31;52947;50.842;6.084;2024-01-07T10:55:18;0.15;98.32
66144;SHT31;52947;50.842;6.084;2024-01-07T10:57:48;0.04;98.38
66144;SHT31;52947;50.842;6.084;2024-01-07T11:00:17;0.01;99.04
66144;SHT31;52947;50.842;6.084;2024-01-07T11:03:02;-0.06;98.68
66144;SHT31;52947;50.842;6.084;2024-01-07T11:05:39;-0.10;98.84
66144;SHT31;52947;50.842;6.084;2024-01-07T11:08:22;-0.04;99.32
66144;SHT31;52947;50.842;6.084;2024-01-07T11:10:57;0.00;99.19
66144;SHT31;52947;50.842;6.084;2024-01-07T11:13:33;-0.11;98.88
66144;SHT31;52947;50.842;6.084;2024-01-07T11:16:02;-0.15;98.58
66144;SHT31;52947;50.842;6.084;2024-01-07T11:18:31;-0.11;98.65
66144;SHT31;52947;50.842;6.084;2024-01-07T11:21:02;-0.14;98.90
66144;SHT31;52947;50.842;6.084;2024-01-07T11:23:32;-0.18;98.74
66144;SHT31;52947;50.842;6.084;2024-01-07T11:26:03;-0.14;99.09
66144;SHT31;52947;50.842;6.084;2024-01-07T11:28:47;-0.07;99.29
66144;SHT31;52947;50.842;6.084;2024-01-07T11:31:18;-0.20;98.52
66144;SHT31;52947;50.842;6.084;2024-01-07T11:33:47;-0.15;99.00
66144;SHT31;52947;50.842;6.084;2024-01-07T11:36:16;-0.21;98.60
66144;SHT31;52947;50.842;6.084;2024-01-07T11:38:48;-0.28;98.83
66144;SHT31;52947;50.842;6.084;2024-01-07T11:41:21;-0.24;99.06
66144;SHT31;52947;50.842;6.084;2024-01-07T11:43:54;-0.31;98.95
66144;SHT31;52947;50.842;6.084;2024-01-07T11:46:22;-0.28;99.12
66144;SHT31;52947;50.842;6.084;2024-01-07T11:48:53;-0.35;99.35
66144;SHT31;52947;50.842;6.084;2024-01-07T11:51:26;-0.28;99.31
66144;SHT31;52947;50.842;6.084;2024-01-07T11:53:56;-0.24;99.17
66144;SHT31;52947;50.842;6.084;2024-01-07T11:56:25;-0.33;98.51
66144;SHT31;52947;50.842;6.084;2024-01-07T11:58:53;-0.28;98.78
66144;SHT31;52947;50.842;6.084;2024-01-07T12:01:23;-0.28;98.56
66144;SHT31;52947;50.842;6.084;2024-01-07T12:03:52;-0.35;98.67
66144;SHT31;52947;50.842;6.084;2024-01-07T12:06:21;-0.33;98.45
66144;SHT31;52947;50.842;6.084;2024-01-07T12:08:49;-0.31;98.34
66144;SHT31;52947;50.842;6.084;2024-01-07T12:11:19;-0.38;98.30
66144;SHT31;52947;50.842;6.084;2024-01-07T12:13:47;-0.35;97.88
66144;SHT31;52947;50.842;6.084;2024-01-07T12:16:17;-0.37;98.04
66144;SHT31;52947;50.842;6.084;2024-01-07T12:18:46;-0.40;98.02
66144;SHT31;52947;50.842;6.084;2024-01-07T12:21:18;-0.42;97.84
66144;SHT31;52947;50.842;6.084;2024-01-07T12:23:48;-0.34;97.87
66144;SHT31;52947;50.842;6.084;2024-01-07T12:26:17;-0.31;98.20
66144;SHT31;52947;50.842;6.084;2024-01-07T12:29:04;-0.28;98.22
66144;SHT31;52947;50.842;6.084;2024-01-07T12:31:34;-0.34;98.08
66144;SHT31;52947;50.842;6.084;2024-01-07T12:34:02;-0.31;98.20
66144;SHT31;52947;50.842;6.084;2024-01-07T12:36:31;-0.31;98.49
66144;SHT31;52947;50.842;6.084;2024-01-07T12:38:59;-0.28;98.48
66144;SHT31;52947;50.842;6.084;2024-01-07T12:41:27;-0.31;98.35
66144;SHT31;52947;50.842;6.084;2024-01-07T12:43:56;-0.33;97.94
66144;SHT31;52947;50.842;6.084;2024-01-07T12:46:25;-0.44;97.83
66144;SHT31;52947;50.842;6.084;2024-01-07T12:48:53;-0.45;97.72
66144;SHT31;52947;50.842;6.084;2024-01-07T12:51:21;-0.45;97.85
66144;SHT31;52947;50.842;6.084;2024-01-07T12:53:50;-0.41;97.98
66144;SHT31;52947;50.842;6.084;2024-01-07T12:56:18;-0.42;97.90
66144;SHT31;52947;50.842;6.084;2024-01-07T12:58:46;-0.41;98.17
66144;SHT31;52947;50.842;6.084;2024-01-07T13:01:14;-0.41;98.14
66144;SHT31;52947;50.842;6.084;2024-01-07T13:03:44;-0.34;98.30
66144;SHT31;52947;50.842;6.084;2024-01-07T13:06:12;-0.35;98.13
66144;SHT31;52947;50.842;6.084;2024-01-07T13:08:40;-0.42;97.74
66144;SHT31;52947;50.842;6.084;2024-01-07T13:11:08;-0.50;97.59
66144;SHT31;52947;50.842;6.084;2024-01-07T13:13:40;-0.50;97.21
66144;SHT31;52947;50.842;6.084;2024-01-07T13:16:09;-0.48;97.28
66144;SHT31;52947;50.842;6.084;2024-01-07T13:18:38;-0.47;97.24
66144;SHT31;52947;50.842;6.084;2024-01-07T13:21:07;-0.54;97.22
66144;SHT31;52947;50.842;6.084;2024-01-07T13:23:35;-0.51;97.59
66144;SHT31;52947;50.842;6.084;2024-01-07T13:26:03;-0.45;97.35
66144;SHT31;52947;50.842;6.084;2024-01-07T13:28:33;-0.45;97.08
66144;SHT31;52947;50.842;6.084;2024-01-07T13:31:01;-0.50;97.08
66144;SHT31;52947;50.842;6.084;2024-01-07T13:33:30;-0.47;97.07
66144;SHT31;52947;50.842;6.084;2024-01-07T13:35:58;-0.51;96.87
66144;SHT31;52947;50.842;6.084;2024-01-07T13:38:28;-0.54;96.83
66144;SHT31;52947;50.842;6.084;2024-01-07T13:40:56;-0.53;96.96
66144;SHT31;52947;50.842;6.084;2024-01-07T13:43:25;-0.54;97.24
66144;SHT31;52947;50.842;6.084;2024-01-07T13:45:56;-0.57;96.96
66144;SHT31;52947;50.842;6.084;2024-01-07T13:48:24;-0.57;97.06
66144;SHT31;52947;50.842;6.084;2024-01-07T13:50:52;-0.61;96.89
66144;SHT31;52947;50.842;6.084;2024-01-07T13:53:21;-0.66;96.58
66144;SHT31;52947;50.842;6.084;2024-01-07T13:55:50;-0.62;96.74
66144;SHT31;52947;50.842;6.084;2024-01-07T13:58:18;-0.66;96.27
66144;SHT31;52947;50.842;6.084;2024-01-07T14:00:48;-0.68;96.57
66144;SHT31;52947;50.842;6.084;2024-01-07T14:03:17;-0.65;96.39
66144;SHT31;52947;50.842;6.084;2024-01-07T14:05:45;-0.60;96.77
66144;SHT31;52947;50.842;6.084;2024-01-07T14:08:13;-0.66;96.65
66144;SHT31;52947;50.842;6.084;2024-01-07T14:10:41;-0.75;96.02
66144;SHT31;52947;50.842;6.084;2024-01-07T14:13:11;-0.76;96.22
66144;SHT31;52947;50.842;6.084;2024-01-07T14:15:39;-0.74;96.67
66144;SHT31;52947;50.842;6.084;2024-01-07T14:18:07;-0.79;95.83
66144;SHT31;52947;50.842;6.084;2024-01-07T14:20:37;-0.84;96.10
66144;SHT31;52947;50.842;6.084;2024-01-07T14:23:05;-0.86;95.76
66144;SHT31;52947;50.842;6.084;2024-01-07T14:25:33;-0.93;94.95
66144;SHT31;52947;50.842;6.084;2024-01-07T14:28:01;-0.92;95.75
66144;SHT31;52947;50.842;6.084;2024-01-07T14:30:32;-0.71;95.39
66144;SHT31;52947;50.842;6.084;2024-01-07T14:33:00;-0.85;95.09
66144;SHT31;52947;50.842;6.084;2024-01-07T14:35:28;-0.92;95.57
66144;SHT31;52947;50.842;6.084;2024-01-07T14:37:58;-1.02;94.75
66144;SHT31;52947;50.842;6.084;2024-01-07T14:40:26;-1.03;94.71
66144;SHT31;52947;50.842;6.084;2024-01-07T14:42:54;-1.00;94.76
66144;SHT31;52947;50.842;6.084;2024-01-07T14:45:26;-1.06;94.61
66144;SHT31;52947;50.842;6.084;2024-01-07T14:47:56;-1.13;94.18
66144;SHT31;52947;50.842;6.084;2024-01-07T14:50:24;-1.09;94.48
66144;SHT31;52947;50.842;6.084;2024-01-07T14:53:05;-1.09;94.56
66144;SHT31;52947;50.842;6.084;2024-01-07T14:55:33;-1.17;94.32
66144;SHT31;52947;50.842;6.084;2024-01-07T14:58:01;-1.17;94.71
66144;SHT31;52947;50.842;6.084;2024-01-07T15:00:29;-1.16;94.59
66144;SHT31;52947;50.842;6.084;2024-01-07T15:02:58;-1.20;94.17
66144;SHT31;52947;50.842;6.084;2024-01-07T15:05:26;-1.26;93.54
66144;SHT31;52947;50.842;6.084;2024-01-07T15:07:54;-1.26;93.57
66144;SHT31;52947;50.842;6.084;2024-01-07T15:10:23;-1.39;93.35
66144;SHT31;52947;50.842;6.084;2024-01-07T15:12:51;-1.39;92.70
66144;SHT31;52947;50.842;6.084;2024-01-07T15:15:28;-1.42;92.86
66144;SHT31;52947;50.842;6.084;2024-01-07T15:17:58;-1.40;92.40
66144;SHT31;52947;50.842;6.084;2024-01-07T15:20:26;-1.39;93.22
66144;SHT31;52947;50.842;6.084;2024-01-07T15:22:54;-1.40;92.89
66144;SHT31;52947;50.842;6.084;2024-01-07T15:25:23;-1.48;91.83
66144;SHT31;52947;50.842;6.084;2024-01-07T15:27:51;-1.47;92.81
66144;SHT31;52947;50.842;6.084;2024-01-07T15:30:19;-1.53;91.59
66144;SHT31;52947;50.842;6.084;2024-01-07T15:32:48;-1.51;91.78
66144;SHT31;52947;50.842;6.084;2024-01-07T15:35:17;-1.56;92.20
66144;SHT31;52947;50.842;6.084;2024-01-07T15:37:45;-1.57;91.80
66144;SHT31;52947;50.842;6.084;2024-01-07T15:40:15;-1.54;92.51
66144;SHT31;52947;50.842;6.084;2024-01-07T15:42:43;-1.53;92.39
66144;SHT31;52947;50.842;6.084;2024-01-07T15:45:11;-1.53;93.14
66144;SHT31;52947;50.842;6.084;2024-01-07T15:47:39;-1.56;91.51
66144;SHT31;52947;50.842;6.084;2024-01-07T15:50:10;-1.54;91.60
66144;SHT31;52947;50.842;6.084;2024-01-07T15:52:41;-1.60;90.93